createdAt,value
2018-12-31T00:01:48.479Z,44.90
2018-12-31T00:04:15.851Z,41.00
2018-12-31T00:06:43.702Z,42.63
2018-12-31T00:09:12.251Z,46.57
2018-12-31T00:11:39.589Z,43.17
2018-12-31T00:14:06.951Z,44.57
2018-12-31T00:16:34.221Z,45.13
2018-12-31T00:19:01.443Z,42.70
2018-12-31T00:21:28.675Z,44.10
2018-12-31T00:23:56.116Z,52.20
2018-12-31T00:26:23.476Z,50.77
2018-12-31T00:28:50.711Z,48.90
2018-12-31T00:31:17.966Z,42.23
2018-12-31T00:33:45.187Z,45.30
2018-12-31T00:36:12.428Z,40.07
2018-12-31T00:38:39.778Z,39.33
2018-12-31T00:41:07.111Z,45.73
2018-12-31T00:43:34.369Z,36.03
2018-12-31T00:46:01.582Z,40.73
2018-12-31T00:48:34.704Z,35.40
2018-12-31T00:51:01.953Z,41.37
2018-12-31T00:53:29.193Z,33.70
2018-12-31T00:55:56.416Z,36.93
2018-12-31T00:58:23.731Z,31.77
2018-12-31T01:00:50.962Z,37.50
2018-12-31T01:03:18.215Z,35.73
2018-12-31T01:05:45.554Z,30.97
2018-12-31T01:08:12.818Z,32.73
2018-12-31T01:10:40.618Z,35.77
2018-12-31T01:13:07.915Z,42.40
2018-12-31T01:15:35.157Z,36.53
2018-12-31T01:18:02.376Z,42.00
2018-12-31T01:20:29.728Z,45.43
2018-12-31T01:22:56.944Z,42.30
2018-12-31T01:25:24.192Z,43.50
2018-12-31T01:27:51.452Z,44.67
2018-12-31T01:30:18.708Z,42.40
2018-12-31T01:32:45.947Z,49.40
2018-12-31T01:35:13.175Z,45.90
2018-12-31T01:37:40.424Z,40.80
2018-12-31T01:40:07.659Z,46.83
2018-12-31T01:42:34.876Z,43.80
2018-12-31T01:45:02.141Z,38.73
2018-12-31T01:47:29.475Z,42.27
2018-12-31T01:49:56.700Z,36.20
2018-12-31T01:52:23.938Z,37.17
2018-12-31T01:54:51.183Z,37.97
2018-12-31T01:57:18.496Z,36.13
2018-12-31T01:59:45.724Z,35.10
2018-12-31T02:02:12.954Z,31.07
2018-12-31T02:04:40.184Z,31.23
2018-12-31T02:07:07.428Z,31.50
2018-12-31T02:09:36.297Z,35.43
2018-12-31T02:12:03.707Z,30.87
2018-12-31T02:14:30.951Z,31.97
2018-12-31T02:16:58.195Z,26.27
2018-12-31T02:19:25.423Z,28.63
2018-12-31T02:21:52.674Z,28.00
2018-12-31T02:24:19.907Z,32.10
2018-12-31T02:26:47.155Z,30.33
2018-12-31T02:29:14.375Z,32.87
2018-12-31T02:31:41.627Z,29.37
2018-12-31T02:34:08.875Z,27.17
2018-12-31T02:36:36.187Z,33.60
2018-12-31T02:39:05.989Z,35.83
2018-12-31T02:41:33.267Z,31.57
2018-12-31T02:44:00.491Z,26.20
2018-12-31T02:46:27.731Z,27.97
2018-12-31T02:48:54.959Z,23.87
2018-12-31T02:51:22.193Z,28.10
2018-12-31T02:53:49.453Z,25.10
2018-12-31T02:56:16.663Z,24.40
2018-12-31T02:58:43.899Z,21.93
2018-12-31T03:01:11.144Z,24.07
2018-12-31T03:03:38.395Z,21.73
2018-12-31T03:06:05.619Z,21.23
2018-12-31T03:08:32.876Z,20.47
2018-12-31T03:11:00.179Z,21.87
2018-12-31T03:13:27.419Z,19.33
2018-12-31T03:15:54.697Z,23.47
2018-12-31T03:18:21.958Z,25.07
2018-12-31T03:20:49.179Z,22.73
2018-12-31T03:23:16.435Z,20.07
2018-12-31T03:26:03.455Z,21.83
2018-12-31T03:28:30.723Z,31.27
2018-12-31T03:30:57.975Z,21.97
2018-12-31T03:33:25.291Z,26.90
2018-12-31T03:35:52.503Z,30.87
2018-12-31T03:38:19.712Z,33.83
2018-12-31T03:40:46.965Z,38.33
2018-12-31T03:43:14.183Z,39.07
2018-12-31T03:45:41.415Z,41.67
2018-12-31T03:48:08.667Z,37.13
2018-12-31T03:50:35.935Z,41.07
2018-12-31T03:53:03.181Z,43.07
2018-12-31T03:55:30.391Z,44.97
2018-12-31T03:57:57.623Z,41.23
2018-12-31T04:00:24.872Z,43.80
2018-12-31T04:02:52.096Z,39.27
2018-12-31T04:05:19.331Z,46.77
2018-12-31T04:07:52.925Z,46.73
2018-12-31T04:10:15.675Z,38.77
2018-12-31T04:12:42.907Z,38.33
2018-12-31T04:15:10.138Z,38.47
2018-12-31T04:17:37.460Z,42.37
2018-12-31T04:20:04.746Z,39.70
2018-12-31T04:22:32.114Z,39.13
2018-12-31T04:24:59.347Z,36.40
2018-12-31T04:27:26.612Z,39.63
2018-12-31T04:29:53.886Z,40.43
2018-12-31T04:32:21.203Z,39.93
2018-12-31T04:34:48.950Z,40.00
2018-12-31T04:37:16.282Z,35.37
2018-12-31T04:39:43.520Z,38.23
2018-12-31T04:42:10.744Z,39.67
2018-12-31T04:44:38.003Z,44.30
2018-12-31T04:47:05.256Z,40.80
2018-12-31T04:49:32.558Z,44.07
2018-12-31T04:51:59.821Z,35.57
2018-12-31T04:54:27.270Z,43.27
2018-12-31T04:56:54.512Z,46.53
2018-12-31T04:59:22.243Z,45.10
2018-12-31T05:01:49.651Z,43.57
2018-12-31T05:04:16.889Z,44.53
2018-12-31T05:06:44.112Z,43.17
2018-12-31T05:09:11.366Z,37.57
2018-12-31T05:11:38.633Z,43.87
2018-12-31T05:14:05.960Z,47.77
2018-12-31T05:16:33.368Z,43.67
2018-12-31T05:19:00.617Z,42.80
2018-12-31T05:21:28.083Z,44.70
2018-12-31T05:23:55.340Z,45.40
2018-12-31T05:26:22.692Z,43.67
2018-12-31T05:28:49.981Z,46.00
2018-12-31T05:31:17.604Z,48.50
2018-12-31T05:33:44.884Z,47.20
2018-12-31T05:36:12.348Z,51.20
2018-12-31T05:38:39.615Z,41.97
2018-12-31T05:41:06.867Z,49.47
2018-12-31T05:43:34.120Z,48.97
2018-12-31T05:46:01.433Z,46.97
2018-12-31T05:48:28.697Z,45.67
2018-12-31T05:50:55.928Z,49.77
2018-12-31T05:53:23.172Z,46.90
2018-12-31T05:55:50.435Z,48.77
2018-12-31T05:58:17.659Z,44.20
2018-12-31T06:00:44.911Z,45.50
2018-12-31T06:03:12.135Z,46.93
2018-12-31T06:05:39.367Z,43.40
2018-12-31T06:08:06.599Z,46.10
2018-12-31T06:10:33.942Z,49.13
2018-12-31T06:13:01.259Z,50.23
2018-12-31T06:15:28.471Z,52.53
2018-12-31T06:17:55.719Z,50.73
2018-12-31T06:20:22.931Z,46.80
2018-12-31T06:22:50.196Z,40.73
2018-12-31T06:25:17.548Z,47.03
2018-12-31T06:27:44.767Z,40.93
2018-12-31T06:30:12.095Z,44.47
2018-12-31T06:32:39.335Z,47.63
2018-12-31T06:35:06.570Z,44.57
2018-12-31T06:37:33.806Z,38.43
2018-12-31T06:40:01.036Z,37.63
2018-12-31T06:42:28.360Z,38.97
2018-12-31T06:44:55.710Z,41.77
2018-12-31T06:47:22.968Z,40.90
2018-12-31T06:49:50.179Z,41.50
2018-12-31T06:52:17.419Z,40.03
2018-12-31T06:54:44.651Z,38.77
2018-12-31T06:57:11.926Z,37.73
2018-12-31T06:59:39.142Z,38.63
2018-12-31T07:02:06.378Z,52.13
2018-12-31T07:04:33.595Z,34.03
2018-12-31T07:07:00.825Z,73.37
2018-12-31T07:09:28.078Z,120.97
2018-12-31T07:11:55.286Z,87.93
2018-12-31T07:14:22.504Z,55.40
2018-12-31T07:16:49.831Z,67.80
2018-12-31T07:19:17.119Z,47.13
2018-12-31T07:21:48.379Z,42.33
2018-12-31T07:24:15.590Z,39.83
2018-12-31T07:26:42.795Z,39.53
2018-12-31T07:29:10.051Z,40.40
2018-12-31T07:31:37.315Z,38.33
2018-12-31T07:34:04.551Z,46.57
2018-12-31T07:36:31.770Z,48.20
2018-12-31T07:39:00.119Z,49.47
2018-12-31T07:41:27.359Z,59.23
2018-12-31T07:43:54.599Z,45.67
2018-12-31T07:46:21.839Z,35.73
2018-12-31T07:48:49.147Z,37.00
2018-12-31T07:51:16.403Z,37.27
2018-12-31T07:53:43.627Z,38.10
2018-12-31T07:56:10.916Z,39.30
2018-12-31T07:58:38.135Z,40.47
2018-12-31T08:01:05.516Z,37.73
2018-12-31T08:03:32.775Z,38.47
2018-12-31T08:06:00.456Z,43.83
2018-12-31T08:08:27.692Z,43.03
2018-12-31T08:10:55.064Z,43.27
2018-12-31T08:13:22.516Z,34.13
2018-12-31T08:15:50.967Z,36.43
2018-12-31T08:18:18.207Z,40.97
2018-12-31T08:20:45.451Z,38.40
2018-12-31T08:23:12.828Z,36.47
2018-12-31T08:25:40.159Z,35.60
2018-12-31T08:28:07.471Z,33.33
2018-12-31T08:30:34.858Z,30.60
2018-12-31T08:33:02.240Z,36.23
2018-12-31T08:35:29.595Z,42.30
2018-12-31T08:37:56.823Z,38.80
2018-12-31T08:40:24.062Z,39.90
2018-12-31T08:42:51.299Z,42.17
2018-12-31T08:45:18.548Z,62.50
2018-12-31T08:47:45.834Z,85.87
2018-12-31T08:50:13.083Z,50.10
2018-12-31T08:52:40.300Z,39.37
2018-12-31T08:55:07.611Z,39.73
2018-12-31T08:57:34.871Z,40.83
2018-12-31T09:00:02.323Z,37.77
2018-12-31T09:02:29.555Z,35.13
2018-12-31T09:04:56.807Z,37.90
2018-12-31T09:07:24.035Z,36.73
2018-12-31T09:09:51.631Z,36.73
2018-12-31T09:12:22.681Z,30.30
2018-12-31T09:14:50.327Z,36.00
2018-12-31T09:17:17.571Z,30.53
2018-12-31T09:19:44.819Z,33.67
2018-12-31T09:22:12.079Z,33.20
2018-12-31T09:24:44.655Z,31.47
2018-12-31T09:27:08.487Z,35.90
2018-12-31T09:29:35.719Z,30.00
2018-12-31T09:32:02.985Z,29.47
2018-12-31T09:34:30.217Z,28.80
2018-12-31T09:36:57.479Z,30.30
2018-12-31T09:39:24.704Z,28.90
2018-12-31T09:41:53.416Z,29.80
2018-12-31T09:44:20.870Z,41.13
2018-12-31T09:46:48.074Z,44.37
2018-12-31T09:49:15.738Z,48.50
2018-12-31T09:51:42.968Z,33.87
2018-12-31T09:54:10.204Z,38.63
2018-12-31T09:56:37.472Z,32.00
2018-12-31T09:59:04.687Z,25.47
2018-12-31T10:01:31.909Z,37.97
2018-12-31T10:03:59.148Z,61.03
2018-12-31T10:06:26.379Z,68.97
2018-12-31T10:08:53.623Z,54.43
2018-12-31T10:11:20.859Z,43.37
2018-12-31T10:13:48.084Z,50.73
2018-12-31T10:16:15.344Z,41.80
2018-12-31T10:18:42.585Z,36.83
2018-12-31T10:21:09.840Z,50.07
2018-12-31T10:23:37.098Z,43.33
2018-12-31T10:26:04.347Z,43.37
2018-12-31T10:28:31.641Z,37.20
2018-12-31T10:30:58.887Z,31.47
2018-12-31T10:33:26.114Z,36.07
2018-12-31T10:35:53.350Z,31.70
2018-12-31T10:38:20.611Z,43.63
2018-12-31T10:40:47.880Z,44.37
2018-12-31T10:43:17.208Z,44.27
2018-12-31T10:45:44.440Z,34.33
2018-12-31T10:48:11.713Z,37.90
2018-12-31T10:50:39.027Z,35.77
2018-12-31T10:53:06.259Z,31.43
2018-12-31T10:55:33.596Z,30.63
2018-12-31T10:58:00.824Z,32.30
2018-12-31T11:00:28.085Z,29.57
2018-12-31T11:02:55.323Z,26.20
2018-12-31T11:05:22.583Z,27.87
2018-12-31T11:07:49.847Z,27.30
2018-12-31T11:10:17.064Z,29.13
2018-12-31T11:12:45.791Z,27.37
2018-12-31T11:15:13.193Z,33.07
2018-12-31T11:17:40.419Z,24.73
2018-12-31T11:20:07.691Z,26.40
2018-12-31T11:22:35.073Z,29.30
2018-12-31T11:25:03.336Z,28.67
2018-12-31T11:27:32.720Z,30.80
2018-12-31T11:29:59.979Z,27.27
2018-12-31T11:32:27.246Z,28.30
2018-12-31T11:34:54.648Z,28.13
2018-12-31T11:37:21.896Z,31.93
2018-12-31T11:39:49.139Z,24.70
2018-12-31T11:42:16.383Z,21.07
2018-12-31T11:44:44.099Z,20.87
2018-12-31T11:47:11.355Z,156.47
2018-12-31T11:49:38.596Z,72.20
2018-12-31T11:52:05.840Z,117.63
2018-12-31T11:54:33.111Z,39.57
2018-12-31T11:57:00.456Z,22.40
2018-12-31T11:59:27.715Z,20.60
2018-12-31T12:01:55.754Z,18.30
2018-12-31T12:04:23.275Z,19.87
2018-12-31T12:06:50.603Z,20.13
2018-12-31T12:09:17.908Z,21.53
2018-12-31T12:11:45.140Z,16.30
2018-12-31T12:14:12.406Z,17.63
2018-12-31T12:16:39.728Z,14.80
2018-12-31T12:19:07.360Z,15.50
2018-12-31T12:21:34.742Z,13.90
2018-12-31T12:24:01.978Z,15.27
2018-12-31T12:26:29.331Z,14.70
2018-12-31T12:28:56.591Z,12.47
2018-12-31T12:31:23.840Z,12.57
2018-12-31T12:33:51.079Z,13.63
2018-12-31T12:36:18.326Z,12.63
2018-12-31T12:38:45.547Z,13.43
2018-12-31T12:41:12.835Z,16.90
2018-12-31T12:43:40.070Z,17.80
2018-12-31T12:46:07.319Z,16.80
2018-12-31T12:48:34.559Z,15.73
2018-12-31T12:51:01.848Z,15.97
2018-12-31T12:53:29.080Z,15.37
2018-12-31T12:55:56.303Z,16.70
2018-12-31T12:58:23.574Z,17.20
2018-12-31T13:00:51.231Z,19.40
2018-12-31T13:03:18.455Z,18.17
2018-12-31T13:05:45.697Z,16.23
2018-12-31T13:08:12.944Z,16.70
2018-12-31T13:10:40.372Z,19.00
2018-12-31T13:13:07.793Z,19.93
2018-12-31T13:15:35.246Z,23.43
2018-12-31T13:18:02.562Z,22.00
2018-12-31T13:20:29.983Z,19.43
2018-12-31T13:22:57.344Z,19.20
2018-12-31T13:25:24.629Z,22.50
2018-12-31T13:27:52.290Z,22.43
2018-12-31T13:30:19.539Z,20.77
2018-12-31T13:32:46.956Z,21.97
2018-12-31T13:35:14.294Z,20.63
2018-12-31T13:37:42.595Z,23.20
2018-12-31T13:40:10.823Z,21.77
2018-12-31T13:42:38.420Z,25.67
2018-12-31T13:45:05.887Z,22.57
2018-12-31T13:47:33.316Z,23.90
2018-12-31T13:50:00.641Z,21.33
2018-12-31T13:52:29.306Z,25.33
2018-12-31T13:54:59.185Z,22.27
2018-12-31T13:57:26.743Z,25.73
2018-12-31T13:59:54.193Z,23.73
2018-12-31T14:02:21.754Z,24.07
2018-12-31T14:04:49.072Z,24.97
2018-12-31T14:07:16.372Z,23.87
2018-12-31T14:09:43.619Z,23.07
2018-12-31T14:12:10.881Z,32.37
2018-12-31T14:14:38.132Z,26.40
2018-12-31T14:17:05.415Z,24.90
2018-12-31T14:19:32.746Z,30.63
2018-12-31T14:22:00.600Z,26.27
2018-12-31T14:24:27.858Z,28.83
2018-12-31T14:27:00.460Z,25.33
2018-12-31T14:29:32.282Z,27.70
2018-12-31T14:31:59.605Z,24.77
2018-12-31T14:34:27.401Z,27.25
2018-12-31T14:36:54.851Z,29.70
2018-12-31T14:39:22.240Z,28.13
2018-12-31T14:41:51.487Z,26.07
2018-12-31T14:44:19.053Z,31.80
2018-12-31T14:46:46.876Z,27.73
2018-12-31T14:49:14.406Z,25.93
2018-12-31T14:51:41.988Z,28.33
2018-12-31T14:54:09.375Z,35.07
2018-12-31T14:56:38.815Z,32.57
2018-12-31T14:59:06.226Z,29.30
2018-12-31T15:01:33.944Z,30.77
2018-12-31T15:04:03.599Z,37.80
2018-12-31T15:06:35.499Z,34.83
2018-12-31T15:09:04.340Z,39.03
2018-12-31T15:11:31.708Z,40.37
2018-12-31T15:13:59.203Z,41.23
2018-12-31T15:16:26.807Z,40.47
2018-12-31T15:18:54.176Z,35.17
2018-12-31T15:21:23.680Z,46.30
2018-12-31T15:23:50.990Z,41.67
2018-12-31T15:26:18.364Z,51.87
2018-12-31T15:28:45.607Z,46.67
2018-12-31T15:31:15.066Z,43.67
2018-12-31T15:33:42.348Z,39.23
2018-12-31T15:36:09.622Z,37.40
2018-12-31T15:38:36.932Z,41.90
2018-12-31T15:41:04.671Z,40.67
2018-12-31T15:43:32.152Z,34.60
2018-12-31T15:45:59.523Z,31.87
2018-12-31T15:48:29.377Z,32.93
2018-12-31T15:50:56.738Z,37.43
2018-12-31T15:53:24.095Z,39.57
2018-12-31T15:55:51.560Z,39.60
2018-12-31T15:58:18.907Z,34.47
2018-12-31T16:00:46.204Z,37.63
2018-12-31T16:03:14.676Z,39.87
2018-12-31T16:05:41.960Z,37.63
2018-12-31T16:08:09.637Z,39.57
2018-12-31T16:10:36.943Z,36.73
2018-12-31T16:13:04.466Z,39.43
2018-12-31T16:15:31.999Z,37.13
2018-12-31T16:17:59.291Z,36.47
2018-12-31T16:20:26.759Z,32.23
2018-12-31T16:22:54.323Z,35.40
2018-12-31T16:25:21.676Z,43.27
2018-12-31T16:27:48.987Z,58.30
2018-12-31T16:30:16.240Z,52.80
2018-12-31T16:32:43.480Z,40.73
2018-12-31T16:35:10.733Z,43.60
2018-12-31T16:37:38.023Z,37.23
2018-12-31T16:40:06.764Z,36.93
2018-12-31T16:42:34.073Z,42.67
2018-12-31T16:45:01.458Z,50.63
2018-12-31T16:47:30.616Z,43.30
2018-12-31T16:49:58.408Z,47.40
2018-12-31T16:52:26.750Z,39.77
2018-12-31T16:54:54.076Z,48.57
2018-12-31T16:57:21.632Z,43.23
2018-12-31T16:59:48.881Z,98.33
2018-12-31T17:02:18.402Z,66.27
2018-12-31T17:04:50.884Z,137.77
2018-12-31T17:07:18.236Z,79.60
2018-12-31T17:09:45.465Z,125.60
2018-12-31T17:12:12.705Z,89.97
2018-12-31T17:14:41.139Z,67.57
2018-12-31T17:17:09.848Z,65.07
2018-12-31T17:19:37.289Z,52.17
2018-12-31T17:22:04.654Z,53.93
2018-12-31T17:24:32.051Z,54.33
2018-12-31T17:27:01.402Z,53.40
2018-12-31T17:29:28.676Z,55.97
2018-12-31T17:31:55.935Z,57.27
2018-12-31T17:34:23.364Z,61.37
2018-12-31T17:36:53.329Z,55.83
2018-12-31T17:39:20.739Z,57.77
2018-12-31T17:41:48.101Z,66.57
2018-12-31T17:44:15.427Z,66.53
2018-12-31T17:46:44.310Z,108.57
2018-12-31T17:49:11.682Z,75.47
2018-12-31T17:51:39.068Z,81.30
2018-12-31T17:54:06.403Z,75.57
2018-12-31T17:56:33.643Z,73.37
2018-12-31T17:59:01.225Z,77.23
2018-12-31T18:01:28.456Z,61.07
2018-12-31T18:03:55.813Z,62.43
2018-12-31T18:06:23.155Z,58.67
2018-12-31T18:08:50.439Z,60.80
2018-12-31T18:11:17.792Z,76.80
2018-12-31T18:13:45.436Z,82.10
2018-12-31T18:16:12.763Z,76.23
2018-12-31T18:18:40.049Z,72.60
2018-12-31T18:21:07.291Z,64.73
2018-12-31T18:23:34.631Z,66.37
2018-12-31T18:26:02.009Z,67.57
2018-12-31T18:28:29.343Z,61.70
2018-12-31T18:30:56.604Z,80.33
2018-12-31T18:33:24.007Z,64.30
2018-12-31T18:35:52.377Z,60.57
2018-12-31T18:38:19.679Z,57.50
2018-12-31T18:40:47.334Z,50.57
2018-12-31T18:43:14.607Z,48.33
2018-12-31T18:45:41.868Z,52.50
2018-12-31T18:48:09.199Z,50.80
2018-12-31T18:50:36.550Z,50.57
2018-12-31T18:53:03.771Z,46.70
2018-12-31T18:55:31.404Z,52.13
2018-12-31T18:57:58.634Z,52.17
2018-12-31T19:00:25.863Z,44.60
2018-12-31T19:02:53.159Z,40.00
2018-12-31T19:05:20.447Z,42.50
2018-12-31T19:07:47.668Z,46.00
2018-12-31T19:10:15.191Z,37.37
2018-12-31T19:12:42.467Z,44.13
2018-12-31T19:15:09.799Z,41.63
2018-12-31T19:17:37.054Z,49.53
2018-12-31T19:20:04.616Z,50.57
2018-12-31T19:22:31.871Z,47.67
2018-12-31T19:24:59.308Z,49.20
2018-12-31T19:27:26.611Z,53.60
2018-12-31T19:29:53.971Z,53.70
2018-12-31T19:32:21.303Z,51.40
2018-12-31T19:34:48.571Z,52.77
2018-12-31T19:37:15.938Z,47.23
2018-12-31T19:39:44.805Z,47.97
2018-12-31T19:42:12.152Z,51.20
2018-12-31T19:44:39.456Z,45.33
2018-12-31T19:47:06.707Z,53.70
2018-12-31T19:49:34.128Z,48.33
2018-12-31T19:52:01.468Z,51.60
2018-12-31T19:54:28.758Z,46.27
2018-12-31T19:56:56.121Z,49.83
2018-12-31T19:59:23.483Z,43.57
2018-12-31T20:01:50.724Z,47.67
2018-12-31T20:04:18.050Z,46.97
2018-12-31T20:06:45.365Z,47.17
2018-12-31T20:09:12.769Z,51.37
2018-12-31T20:11:40.064Z,45.87
2018-12-31T20:14:07.439Z,46.77
2018-12-31T20:16:34.683Z,43.93
2018-12-31T20:19:01.932Z,49.13
2018-12-31T20:21:30.417Z,45.50
2018-12-31T20:23:57.710Z,46.07
2018-12-31T20:26:24.934Z,49.37
2018-12-31T20:28:52.287Z,49.77
2018-12-31T20:31:19.559Z,50.87
2018-12-31T20:33:46.895Z,45.80
2018-12-31T20:36:14.156Z,51.00
2018-12-31T20:38:41.696Z,57.03
2018-12-31T20:41:09.051Z,58.67
2018-12-31T20:43:36.407Z,46.43
2018-12-31T20:46:03.651Z,59.87
2018-12-31T20:48:31.035Z,49.93
2018-12-31T20:50:58.371Z,50.07
2018-12-31T20:53:26.022Z,65.67
2018-12-31T20:55:53.261Z,63.50
2018-12-31T20:58:20.512Z,66.03
2018-12-31T21:00:47.854Z,63.93
2018-12-31T21:03:15.199Z,59.97
2018-12-31T21:05:42.427Z,70.20
2018-12-31T21:08:09.662Z,57.13
2018-12-31T21:10:37.031Z,60.10
2018-12-31T21:13:04.359Z,69.77
2018-12-31T21:15:31.644Z,67.90
2018-12-31T21:17:58.888Z,56.40
2018-12-31T21:20:26.271Z,55.00
2018-12-31T21:22:53.943Z,60.03
2018-12-31T21:25:21.198Z,57.67
2018-12-31T21:27:48.443Z,56.63
2018-12-31T21:30:15.715Z,61.03
2018-12-31T21:32:42.976Z,61.13
2018-12-31T21:35:10.219Z,64.63
2018-12-31T21:37:37.559Z,69.17
2018-12-31T21:40:07.056Z,65.13
2018-12-31T21:42:34.384Z,62.03
2018-12-31T21:45:01.706Z,67.93
2018-12-31T21:47:29.038Z,70.03
2018-12-31T21:49:56.354Z,68.00
2018-12-31T21:52:24.195Z,69.33
2018-12-31T21:54:51.423Z,64.17
2018-12-31T21:57:18.668Z,59.23
2018-12-31T21:59:45.957Z,64.53
2018-12-31T22:02:13.271Z,83.93
2018-12-31T22:04:40.512Z,102.80
2018-12-31T22:07:08.219Z,96.10
2018-12-31T22:09:38.793Z,100.67
2018-12-31T22:12:08.803Z,82.23
2018-12-31T22:14:36.109Z,71.07
2018-12-31T22:17:15.635Z,88.43
2018-12-31T22:19:43.013Z,77.80
2018-12-31T22:22:10.256Z,91.83
2018-12-31T22:24:37.648Z,73.33
2018-12-31T22:27:14.479Z,121.97
2018-12-31T22:29:44.263Z,85.00
2018-12-31T22:32:11.489Z,90.33
2018-12-31T22:34:38.910Z,88.50
2018-12-31T22:37:10.946Z,102.10
2018-12-31T22:39:38.283Z,88.50
2018-12-31T22:42:05.722Z,106.07
2018-12-31T22:44:33.540Z,121.63
2018-12-31T22:47:02.888Z,101.17
2018-12-31T22:49:36.095Z,95.07
2018-12-31T22:52:03.454Z,113.17
2018-12-31T22:54:30.683Z,119.07
2018-12-31T22:57:04.383Z,198.73
2018-12-31T22:59:31.603Z,161.07
2018-12-31T23:01:58.939Z,185.87
2018-12-31T23:04:26.164Z,150.67
2018-12-31T23:06:57.313Z,203.83
2018-12-31T23:09:24.943Z,773.10
2018-12-31T23:11:52.219Z,601.50
2018-12-31T23:14:19.551Z,500.80
2018-12-31T23:16:50.435Z,411.13
2018-12-31T23:19:17.661Z,414.67
2018-12-31T23:21:45.072Z,344.40
2018-12-31T23:24:12.400Z,251.97
2018-12-31T23:26:39.789Z,216.27
2018-12-31T23:29:07.036Z,245.97
2018-12-31T23:31:34.283Z,263.80
2018-12-31T23:34:01.643Z,313.20
2018-12-31T23:36:28.967Z,312.00
2018-12-31T23:38:56.308Z,348.77
2018-12-31T23:41:27.136Z,352.73
2018-12-31T23:43:54.455Z,318.50
2018-12-31T23:46:21.692Z,330.50
2018-12-31T23:48:48.933Z,300.50
2018-12-31T23:51:16.574Z,309.23
2018-12-31T23:53:43.943Z,343.33
2018-12-31T23:56:11.282Z,342.90
2018-12-31T23:58:38.696Z,349.13
